sensor_id;sensor_type;location;lat;lon;timestamp;temperature;humidity
6696;DHT22;3385;48.928;10.330;2023-02-28T00:01:19;-2.70;99.90
6696;DHT22;3385;48.928;10.330;2023-02-28T00:03:45;-2.50;99.90
6696;DHT22;3385;48.928;10.330;2023-02-28T00:06:10;-2.70;99.90
6696;DHT22;3385;48.928;10.330;2023-02-28T00:08:37;-2.60;99.90
6696;DHT22;3385;48.928;10.330;2023-02-28T00:11:09;-2.70;99.90
6696;DHT22;3385;48.928;10.330;2023-02-28T00:13:37;-2.40;99.90
6696;DHT22;3385;48.928;10.330;2023-02-28T00:16:05;-2.30;99.90
6696;DHT22;3385;48.928;10.330;2023-02-28T00:18:32;-2.50;99.90
6696;DHT22;3385;48.928;10.330;2023-02-28T00:20:59;-2.40;99.90
6696;DHT22;3385;48.928;10.330;2023-02-28T00:23:25;-2.60;99.90
6696;DHT22;3385;48.928;10.330;2023-02-28T00:25:52;-2.20;99.90
6696;DHT22;3385;48.928;10.330;2023-02-28T00:28:19;-2.50;99.90
6696;DHT22;3385;48.928;10.330;2023-02-28T00:30:46;-2.70;99.90
6696;DHT22;3385;48.928;10.330;2023-02-28T00:33:11;-2.60;99.90
6696;DHT22;3385;48.928;10.330;2023-02-28T00:35:38;-2.80;99.90
6696;DHT22;3385;48.928;10.330;2023-02-28T00:38:04;-2.90;99.90
6696;DHT22;3385;48.928;10.330;2023-02-28T00:40:29;-3.70;99.90
6696;DHT22;3385;48.928;10.330;2023-02-28T00:42:55;-2.90;99.90
6696;DHT22;3385;48.928;10.330;2023-02-28T00:45:21;-2.60;99.90
6696;DHT22;3385;48.928;10.330;2023-02-28T00:47:47;-2.90;99.90
6696;DHT22;3385;48.928;10.330;2023-02-28T00:50:17;-2.90;99.90
6696;DHT22;3385;48.928;10.330;2023-02-28T00:52:43;-2.70;99.90
6696;DHT22;3385;48.928;10.330;2023-02-28T00:55:09;-2.90;99.90
6696;DHT22;3385;48.928;10.330;2023-02-28T00:57:35;-3.00;99.90
6696;DHT22;3385;48.928;10.330;2023-02-28T01:00:00;-2.80;99.90
6696;DHT22;3385;48.928;10.330;2023-02-28T01:02:27;-3.10;99.90
6696;DHT22;3385;48.928;10.330;2023-02-28T01:04:52;-3.20;99.90
6696;DHT22;3385;48.928;10.330;2023-02-28T01:07:19;-3.10;99.90
6696;DHT22;3385;48.928;10.330;2023-02-28T01:09:44;-2.90;99.90
6696;DHT22;3385;48.928;10.330;2023-02-28T01:12:10;-3.10;99.90
6696;DHT22;3385;48.928;10.330;2023-02-28T01:14:36;-2.60;99.90
6696;DHT22;3385;48.928;10.330;2023-02-28T01:17:03;-2.90;99.90
6696;DHT22;3385;48.928;10.330;2023-02-28T01:19:28;-3.10;99.90
6696;DHT22;3385;48.928;10.330;2023-02-28T01:21:54;-2.90;99.90
6696;DHT22;3385;48.928;10.330;2023-02-28T01:24:20;-3.00;99.90
6696;DHT22;3385;48.928;10.330;2023-02-28T01:26:45;-3.00;99.90
6696;DHT22;3385;48.928;10.330;2023-02-28T01:29:11;-3.00;99.90
6696;DHT22;3385;48.928;10.330;2023-02-28T01:31:37;-3.10;99.90
6696;DHT22;3385;48.928;10.330;2023-02-28T01:34:03;-3.10;99.90
6696;DHT22;3385;48.928;10.330;2023-02-28T01:36:29;-3.30;99.90
6696;DHT22;3385;48.928;10.330;2023-02-28T01:38:55;-3.30;99.90
6696;DHT22;3385;48.928;10.330;2023-02-28T01:41:26;-3.10;99.90
6696;DHT22;3385;48.928;10.330;2023-02-28T01:46:29;-3.10;99.90
6696;DHT22;3385;48.928;10.330;2023-02-28T01:49:16;-3.20;99.90
6696;DHT22;3385;48.928;10.330;2023-02-28T01:51:45;-3.20;99.90
6696;DHT22;3385;48.928;10.330;2023-02-28T01:54:23;-2.80;99.90
6696;DHT22;3385;48.928;10.330;2023-02-28T01:56:54;-3.20;99.90
6696;DHT22;3385;48.928;10.330;2023-02-28T01:59:36;-3.10;99.90
6696;DHT22;3385;48.928;10.330;2023-02-28T02:02:04;-2.90;99.90
6696;DHT22;3385;48.928;10.330;2023-02-28T02:04:41;-3.10;99.90
6696;DHT22;3385;48.928;10.330;2023-02-28T02:07:09;-3.50;99.90
6696;DHT22;3385;48.928;10.330;2023-02-28T02:09:35;-3.30;99.90
6696;DHT22;3385;48.928;10.330;2023-02-28T02:12:12;-3.50;99.90
6696;DHT22;3385;48.928;10.330;2023-02-28T02:15:11;-3.40;99.90
6696;DHT22;3385;48.928;10.330;2023-02-28T02:17:44;-3.40;99.90
6696;DHT22;3385;48.928;10.330;2023-02-28T02:25:56;-3.50;99.90
6696;DHT22;3385;48.928;10.330;2023-02-28T02:31:28;-3.50;99.90
6696;DHT22;3385;48.928;10.330;2023-02-28T02:36:43;-3.50;99.90
6696;DHT22;3385;48.928;10.330;2023-02-28T02:42:24;-3.30;99.90
6696;DHT22;3385;48.928;10.330;2023-02-28T02:45:00;-3.40;99.90
6696;DHT22;3385;48.928;10.330;2023-02-28T02:47:29;-3.10;99.90
6696;DHT22;3385;48.928;10.330;2023-02-28T02:49:59;-3.70;99.90
6696;DHT22;3385;48.928;10.330;2023-02-28T02:52:34;-3.10;99.90
6696;DHT22;3385;48.928;10.330;2023-02-28T02:55:04;-3.70;99.90
6696;DHT22;3385;48.928;10.330;2023-02-28T02:57:38;-3.70;99.90
6696;DHT22;3385;48.928;10.330;2023-02-28T03:00:06;-3.60;99.90
6696;DHT22;3385;48.928;10.330;2023-02-28T03:02:35;-3.50;99.90
6696;DHT22;3385;48.928;10.330;2023-02-28T03:05:12;-3.60;99.90
6696;DHT22;3385;48.928;10.330;2023-02-28T03:07:39;-3.70;99.90
6696;DHT22;3385;48.928;10.330;2023-02-28T03:10:26;-3.70;99.90
6696;DHT22;3385;48.928;10.330;2023-02-28T03:21:38;-3.40;99.90
6696;DHT22;3385;48.928;10.330;2023-02-28T03:24:34;-3.20;99.90
6696;DHT22;3385;48.928;10.330;2023-02-28T03:27:45;-3.50;99.90
6696;DHT22;3385;48.928;10.330;2023-02-28T03:30:01;-3.50;99.90
6696;DHT22;3385;48.928;10.330;2023-02-28T03:32:54;-3.50;99.90
6696;DHT22;3385;48.928;10.330;2023-02-28T03:35:30;-3.30;99.90
6696;DHT22;3385;48.928;10.330;2023-02-28T03:38:05;-3.30;99.90
6696;DHT22;3385;48.928;10.330;2023-02-28T03:40:33;-3.20;99.90
6696;DHT22;3385;48.928;10.330;2023-02-28T03:43:07;-3.50;99.90
6696;DHT22;3385;48.928;10.330;2023-02-28T03:45:37;-3.30;99.90
6696;DHT22;3385;48.928;10.330;2023-02-28T03:48:09;-3.40;99.90
6696;DHT22;3385;48.928;10.330;2023-02-28T03:50:41;-3.30;99.90
6696;DHT22;3385;48.928;10.330;2023-02-28T03:53:21;-3.50;99.90
6696;DHT22;3385;48.928;10.330;2023-02-28T03:55:52;-3.40;99.90
6696;DHT22;3385;48.928;10.330;2023-02-28T04:01:15;-3.20;99.90
6696;DHT22;3385;48.928;10.330;2023-02-28T04:03:43;-3.40;99.90
6696;DHT22;3385;48.928;10.330;2023-02-28T04:06:18;-3.40;99.90
6696;DHT22;3385;48.928;10.330;2023-02-28T04:08:44;-3.30;99.90
6696;DHT22;3385;48.928;10.330;2023-02-28T04:11:20;-3.30;99.90
6696;DHT22;3385;48.928;10.330;2023-02-28T04:13:47;-3.40;99.90
6696;DHT22;3385;48.928;10.330;2023-02-28T04:16:14;-3.40;99.90
6696;DHT22;3385;48.928;10.330;2023-02-28T04:18:40;-3.40;99.90
6696;DHT22;3385;48.928;10.330;2023-02-28T04:21:06;-3.30;99.90
6696;DHT22;3385;48.928;10.330;2023-02-28T04:23:32;-3.30;99.90
6696;DHT22;3385;48.928;10.330;2023-02-28T04:25:58;-3.20;99.90
6696;DHT22;3385;48.928;10.330;2023-02-28T04:28:25;-3.40;99.90
6696;DHT22;3385;48.928;10.330;2023-02-28T04:31:01;-3.30;99.90
6696;DHT22;3385;48.928;10.330;2023-02-28T04:33:27;-3.50;99.90
6696;DHT22;3385;48.928;10.330;2023-02-28T04:36:05;-3.30;99.90
6696;DHT22;3385;48.928;10.330;2023-02-28T04:38:38;-3.50;99.90
6696;DHT22;3385;48.928;10.330;2023-02-28T04:41:05;-3.30;99.90
6696;DHT22;3385;48.928;10.330;2023-02-28T04:43:31;-3.60;99.90
6696;DHT22;3385;48.928;10.330;2023-02-28T04:46:00;-3.40;99.90
6696;DHT22;3385;48.928;10.330;2023-02-28T04:48:28;-3.50;99.90
6696;DHT22;3385;48.928;10.330;2023-02-28T04:50:54;-3.50;99.90
6696;DHT22;3385;48.928;10.330;2023-02-28T04:53:20;-3.60;99.90
6696;DHT22;3385;48.928;10.330;2023-02-28T04:55:46;-3.60;99.90
6696;DHT22;3385;48.928;10.330;2023-02-28T04:58:15;-3.10;99.90
6696;DHT22;3385;48.928;10.330;2023-02-28T05:00:41;-3.40;99.90
6696;DHT22;3385;48.928;10.330;2023-02-28T05:03:07;-3.40;99.90
6696;DHT22;3385;48.928;10.330;2023-02-28T05:05:33;-3.60;99.90
6696;DHT22;3385;48.928;10.330;2023-02-28T05:07:58;-3.40;99.90
6696;DHT22;3385;48.928;10.330;2023-02-28T05:10:24;-3.40;99.90
6696;DHT22;3385;48.928;10.330;2023-02-28T05:12:50;-3.40;99.90
6696;DHT22;3385;48.928;10.330;2023-02-28T05:15:17;-3.60;99.90
6696;DHT22;3385;48.928;10.330;2023-02-28T05:17:43;-3.60;99.90
6696;DHT22;3385;48.928;10.330;2023-02-28T05:20:10;-3.70;99.90
6696;DHT22;3385;48.928;10.330;2023-02-28T05:22:40;-1.80;99.90
6696;DHT22;3385;48.928;10.330;2023-02-28T05:25:06;-3.60;99.90
6696;DHT22;3385;48.928;10.330;2023-02-28T05:27:32;-3.80;99.90
6696;DHT22;3385;48.928;10.330;2023-02-28T05:29:58;-3.80;99.90
6696;DHT22;3385;48.928;10.330;2023-02-28T05:32:24;-3.80;99.90
6696;DHT22;3385;48.928;10.330;2023-02-28T05:34:50;-3.50;99.90
6696;DHT22;3385;48.928;10.330;2023-02-28T05:37:16;-3.60;99.90
6696;DHT22;3385;48.928;10.330;2023-02-28T05:39:42;-3.60;99.90
6696;DHT22;3385;48.928;10.330;2023-02-28T05:42:08;-3.50;99.90
6696;DHT22;3385;48.928;10.330;2023-02-28T05:44:35;-3.70;99.90
6696;DHT22;3385;48.928;10.330;2023-02-28T05:47:02;-3.80;99.90
6696;DHT22;3385;48.928;10.330;2023-02-28T05:49:28;-3.80;99.90
6696;DHT22;3385;48.928;10.330;2023-02-28T05:51:54;-3.60;99.90
6696;DHT22;3385;48.928;10.330;2023-02-28T05:54:19;-3.60;99.90
6696;DHT22;3385;48.928;10.330;2023-02-28T05:56:45;-3.60;99.90
6696;DHT22;3385;48.928;10.330;2023-02-28T05:59:12;-3.70;99.90
6696;DHT22;3385;48.928;10.330;2023-02-28T06:01:43;-3.90;99.90
6696;DHT22;3385;48.928;10.330;2023-02-28T06:04:14;-3.90;99.90
6696;DHT22;3385;48.928;10.330;2023-02-28T06:06:43;-3.90;99.90
6696;DHT22;3385;48.928;10.330;2023-02-28T06:09:10;-4.00;99.90
6696;DHT22;3385;48.928;10.330;2023-02-28T06:11:36;-3.90;99.90
6696;DHT22;3385;48.928;10.330;2023-02-28T06:14:03;-3.90;99.90
6696;DHT22;3385;48.928;10.330;2023-02-28T06:16:31;-3.90;99.90
6696;DHT22;3385;48.928;10.330;2023-02-28T06:18:58;-3.70;99.90
6696;DHT22;3385;48.928;10.330;2023-02-28T06:21:23;-3.70;99.90
6696;DHT22;3385;48.928;10.330;2023-02-28T06:23:50;-3.90;99.90
6696;DHT22;3385;48.928;10.330;2023-02-28T06:26:16;-3.70;99.90
6696;DHT22;3385;48.928;10.330;2023-02-28T06:28:41;-3.80;99.90
6696;DHT22;3385;48.928;10.330;2023-02-28T06:31:13;-3.70;99.90
6696;DHT22;3385;48.928;10.330;2023-02-28T06:33:40;-3.60;99.90
6696;DHT22;3385;48.928;10.330;2023-02-28T06:36:08;-3.70;99.90
6696;DHT22;3385;48.928;10.330;2023-02-28T06:38:34;-3.70;99.90
6696;DHT22;3385;48.928;10.330;2023-02-28T06:41:01;-3.80;99.90
6696;DHT22;3385;48.928;10.330;2023-02-28T06:43:32;-3.50;99.90
6696;DHT22;3385;48.928;10.330;2023-02-28T06:46:01;-3.60;99.90
6696;DHT22;3385;48.928;10.330;2023-02-28T06:48:28;-3.50;99.90
6696;DHT22;3385;48.928;10.330;2023-02-28T06:51:11;-3.50;99.90
6696;DHT22;3385;48.928;10.330;2023-02-28T06:53:39;-3.40;99.90
6696;DHT22;3385;48.928;10.330;2023-02-28T06:56:07;-3.60;99.90
6696;DHT22;3385;48.928;10.330;2023-02-28T06:58:34;-3.40;99.90
6696;DHT22;3385;48.928;10.330;2023-02-28T07:01:00;-3.40;99.90
6696;DHT22;3385;48.928;10.330;2023-02-28T07:03:26;-3.40;99.90
6696;DHT22;3385;48.928;10.330;2023-02-28T07:05:52;-3.40;99.90
6696;DHT22;3385;48.928;10.330;2023-02-28T07:08:18;-3.40;99.90
6696;DHT22;3385;48.928;10.330;2023-02-28T07:10:44;-3.20;99.90
6696;DHT22;3385;48.928;10.330;2023-02-28T07:13:10;-3.00;99.90
6696;DHT22;3385;48.928;10.330;2023-02-28T07:15:37;-2.70;99.90
6696;DHT22;3385;48.928;10.330;2023-02-28T07:18:03;-2.90;99.90
6696;DHT22;3385;48.928;10.330;2023-02-28T07:20:29;-2.70;99.90
6696;DHT22;3385;48.928;10.330;2023-02-28T07:22:55;-2.70;99.90
6696;DHT22;3385;48.928;10.330;2023-02-28T07:25:26;-2.50;99.90
6696;DHT22;3385;48.928;10.330;2023-02-28T07:27:53;-2.60;99.90
6696;DHT22;3385;48.928;10.330;2023-02-28T07:30:19;-2.60;99.90
6696;DHT22;3385;48.928;10.330;2023-02-28T07:32:44;-2.20;99.90
6696;DHT22;3385;48.928;10.330;2023-02-28T07:35:10;-2.30;99.90
6696;DHT22;3385;48.928;10.330;2023-02-28T07:37:37;-2.10;99.90
6696;DHT22;3385;48.928;10.330;2023-02-28T07:40:04;-2.20;99.90
6696;DHT22;3385;48.928;10.330;2023-02-28T07:42:40;-1.90;99.90
6696;DHT22;3385;48.928;10.330;2023-02-28T07:45:08;-2.00;99.90
6696;DHT22;3385;48.928;10.330;2023-02-28T07:47:34;-1.80;99.90
6696;DHT22;3385;48.928;10.330;2023-02-28T07:49:59;-1.90;99.90
6696;DHT22;3385;48.928;10.330;2023-02-28T07:52:25;-1.90;99.90
6696;DHT22;3385;48.928;10.330;2023-02-28T07:54:52;-1.50;99.90
6696;DHT22;3385;48.928;10.330;2023-02-28T07:57:18;-1.60;99.90
6696;DHT22;3385;48.928;10.330;2023-02-28T07:59:43;-1.40;99.90
6696;DHT22;3385;48.928;10.330;2023-02-28T08:02:14;-1.10;99.90
6696;DHT22;3385;48.928;10.330;2023-02-28T08:04:40;-1.00;99.90
6696;DHT22;3385;48.928;10.330;2023-02-28T08:07:06;-0.90;99.90
6696;DHT22;3385;48.928;10.330;2023-02-28T08:09:32;-0.70;99.90
6696;DHT22;3385;48.928;10.330;2023-02-28T08:11:58;-0.70;99.90
6696;DHT22;3385;48.928;10.330;2023-02-28T08:14:23;-0.50;99.90
6696;DHT22;3385;48.928;10.330;2023-02-28T08:16:49;-0.50;99.90
6696;DHT22;3385;48.928;10.330;2023-02-28T08:19:15;-0.10;99.90
6696;DHT22;3385;48.928;10.330;2023-02-28T08:21:40;-0.20;99.90
6696;DHT22;3385;48.928;10.330;2023-02-28T08:24:07;0.30;99.90
6696;DHT22;3385;48.928;10.330;2023-02-28T08:26:32;0.60;99.90
6696;DHT22;3385;48.928;10.330;2023-02-28T08:28:58;0.10;99.90
6696;DHT22;3385;48.928;10.330;2023-02-28T08:31:24;0.40;99.90
6696;DHT22;3385;48.928;10.330;2023-02-28T08:33:50;0.50;99.90
6696;DHT22;3385;48.928;10.330;2023-02-28T08:36:17;0.10;99.90
6696;DHT22;3385;48.928;10.330;2023-02-28T08:38:43;0.30;99.90
6696;DHT22;3385;48.928;10.330;2023-02-28T08:41:11;0.20;99.90
6696;DHT22;3385;48.928;10.330;2023-02-28T08:43:38;0.50;99.90
6696;DHT22;3385;48.928;10.330;2023-02-28T08:46:05;0.40;99.90
6696;DHT22;3385;48.928;10.330;2023-02-28T08:48:33;0.20;99.90
6696;DHT22;3385;48.928;10.330;2023-02-28T08:51:10;0.70;99.90
6696;DHT22;3385;48.928;10.330;2023-02-28T08:53:37;0.70;99.90
6696;DHT22;3385;48.928;10.330;2023-02-28T08:58:30;1.10;99.90
6696;DHT22;3385;48.928;10.330;2023-02-28T09:00:56;0.90;99.90
6696;DHT22;3385;48.928;10.330;2023-02-28T09:03:23;0.60;99.90
6696;DHT22;3385;48.928;10.330;2023-02-28T09:05:57;0.80;99.90
6696;DHT22;3385;48.928;10.330;2023-02-28T09:08:24;0.80;99.90
6696;DHT22;3385;48.928;10.330;2023-02-28T09:10:50;0.70;99.90
6696;DHT22;3385;48.928;10.330;2023-02-28T09:13:17;0.70;99.90
6696;DHT22;3385;48.928;10.330;2023-02-28T09:15:43;1.00;99.90
6696;DHT22;3385;48.928;10.330;2023-02-28T09:18:09;0.80;99.90
6696;DHT22;3385;48.928;10.330;2023-02-28T09:20:38;1.20;99.90
6696;DHT22;3385;48.928;10.330;2023-02-28T09:23:05;1.00;99.90
6696;DHT22;3385;48.928;10.330;2023-02-28T09:25:31;1.30;99.90
6696;DHT22;3385;48.928;10.330;2023-02-28T09:27:57;1.50;99.90
6696;DHT22;3385;48.928;10.330;2023-02-28T09:30:23;1.50;99.90
6696;DHT22;3385;48.928;10.330;2023-02-28T09:32:48;1.60;99.90
6696;DHT22;3385;48.928;10.330;2023-02-28T09:35:24;1.80;99.90
6696;DHT22;3385;48.928;10.330;2023-02-28T09:37:51;2.10;99.90
6696;DHT22;3385;48.928;10.330;2023-02-28T09:40:22;2.20;99.90
6696;DHT22;3385;48.928;10.330;2023-02-28T09:42:51;2.40;99.90
6696;DHT22;3385;48.928;10.330;2023-02-28T09:45:25;2.60;99.90
6696;DHT22;3385;48.928;10.330;2023-02-28T09:47:55;3.20;99.90
6696;DHT22;3385;48.928;10.330;2023-02-28T09:50:35;3.30;99.90
6696;DHT22;3385;48.928;10.330;2023-02-28T09:53:10;3.50;99.90
6696;DHT22;3385;48.928;10.330;2023-02-28T09:55:47;3.80;99.90
6696;DHT22;3385;48.928;10.330;2023-02-28T09:58:34;4.30;99.90
6696;DHT22;3385;48.928;10.330;2023-02-28T10:04:04;5.20;99.90
6696;DHT22;3385;48.928;10.330;2023-02-28T10:06:43;5.40;99.90
6696;DHT22;3385;48.928;10.330;2023-02-28T10:09:31;6.00;99.90
6696;DHT22;3385;48.928;10.330;2023-02-28T10:12:04;5.60;99.90
6696;DHT22;3385;48.928;10.330;2023-02-28T10:14:33;5.80;99.90
6696;DHT22;3385;48.928;10.330;2023-02-28T10:17:36;6.10;99.90
6696;DHT22;3385;48.928;10.330;2023-02-28T10:20:06;6.50;99.90
6696;DHT22;3385;48.928;10.330;2023-02-28T10:25:27;5.50;99.90
6696;DHT22;3385;48.928;10.330;2023-02-28T10:27:54;5.10;99.90
6696;DHT22;3385;48.928;10.330;2023-02-28T10:30:23;4.70;99.90
6696;DHT22;3385;48.928;10.330;2023-02-28T10:32:52;4.90;99.90
6696;DHT22;3385;48.928;10.330;2023-02-28T10:35:26;5.30;99.90
6696;DHT22;3385;48.928;10.330;2023-02-28T10:37:57;5.40;99.90
6696;DHT22;3385;48.928;10.330;2023-02-28T10:45:20;4.00;99.90
6696;DHT22;3385;48.928;10.330;2023-02-28T10:48:02;4.60;99.90
6696;DHT22;3385;48.928;10.330;2023-02-28T11:01:20;5.80;99.90
6696;DHT22;3385;48.928;10.330;2023-02-28T11:03:46;6.30;99.90
6696;DHT22;3385;48.928;10.330;2023-02-28T11:06:18;6.10;99.90
6696;DHT22;3385;48.928;10.330;2023-02-28T11:08:48;6.60;99.90
6696;DHT22;3385;48.928;10.330;2023-02-28T11:11:15;7.10;99.90
6696;DHT22;3385;48.928;10.330;2023-02-28T11:13:44;7.80;99.90
6696;DHT22;3385;48.928;10.330;2023-02-28T11:16:12;7.50;99.90
6696;DHT22;3385;48.928;10.330;2023-02-28T11:18:52;7.70;99.90
6696;DHT22;3385;48.928;10.330;2023-02-28T11:21:26;7.80;99.90
6696;DHT22;3385;48.928;10.330;2023-02-28T11:24:42;8.80;99.90
6696;DHT22;3385;48.928;10.330;2023-02-28T11:26:44;9.50;99.90
6696;DHT22;3385;48.928;10.330;2023-02-28T11:29:33;10.10;99.90
6696;DHT22;3385;48.928;10.330;2023-02-28T11:34:37;9.90;99.90
6696;DHT22;3385;48.928;10.330;2023-02-28T11:37:04;10.10;99.90
6696;DHT22;3385;48.928;10.330;2023-02-28T11:39:33;10.40;99.90
6696;DHT22;3385;48.928;10.330;2023-02-28T11:50:21;10.40;99.90
6696;DHT22;3385;48.928;10.330;2023-02-28T11:52:55;10.10;99.90
6696;DHT22;3385;48.928;10.330;2023-02-28T11:55:27;10.00;99.90
6696;DHT22;3385;48.928;10.330;2023-02-28T11:58:42;9.80;99.90
6696;DHT22;3385;48.928;10.330;2023-02-28T12:06:52;11.40;99.90
6696;DHT22;3385;48.928;10.330;2023-02-28T12:09:44;11.10;99.90
6696;DHT22;3385;48.928;10.330;2023-02-28T12:17:58;11.00;99.90
6696;DHT22;3385;48.928;10.330;2023-02-28T12:23:18;10.40;99.90
6696;DHT22;3385;48.928;10.330;2023-02-28T12:28:44;10.60;99.90
6696;DHT22;3385;48.928;10.330;2023-02-28T12:31:22;10.50;99.90
6696;DHT22;3385;48.928;10.330;2023-02-28T12:34:10;10.50;99.90
6696;DHT22;3385;48.928;10.330;2023-02-28T12:36:37;10.80;99.90
6696;DHT22;3385;48.928;10.330;2023-02-28T12:39:26;10.50;99.90
6696;DHT22;3385;48.928;10.330;2023-02-28T12:41:56;10.20;99.90
6696;DHT22;3385;48.928;10.330;2023-02-28T12:44:26;10.40;99.90
6696;DHT22;3385;48.928;10.330;2023-02-28T12:47:00;10.50;99.90
6696;DHT22;3385;48.928;10.330;2023-02-28T12:49:38;10.10;99.90
6696;DHT22;3385;48.928;10.330;2023-02-28T12:52:05;9.40;99.90
6696;DHT22;3385;48.928;10.330;2023-02-28T12:55:27;9.30;99.90
6696;DHT22;3385;48.928;10.330;2023-02-28T13:00:22;10.10;99.90
6696;DHT22;3385;48.928;10.330;2023-02-28T13:17:13;11.40;99.90
6696;DHT22;3385;48.928;10.330;2023-02-28T13:19:58;12.70;99.90
6696;DHT22;3385;48.928;10.330;2023-02-28T13:22:45;13.00;99.90
6696;DHT22;3385;48.928;10.330;2023-02-28T13:27:49;12.60;99.90
6696;DHT22;3385;48.928;10.330;2023-02-28T13:33:27;16.00;99.90
6696;DHT22;3385;48.928;10.330;2023-02-28T13:38:58;13.40;99.90
6696;DHT22;3385;48.928;10.330;2023-02-28T13:44:11;12.60;99.90
6696;DHT22;3385;48.928;10.330;2023-02-28T14:05:19;11.20;99.90
6696;DHT22;3385;48.928;10.330;2023-02-28T14:08:14;11.00;99.90
6696;DHT22;3385;48.928;10.330;2023-02-28T14:10:45;11.20;99.90
6696;DHT22;3385;48.928;10.330;2023-02-28T14:21:11;10.10;99.90
6696;DHT22;3385;48.928;10.330;2023-02-28T14:32:18;10.10;99.90
6696;DHT22;3385;48.928;10.330;2023-02-28T14:34:54;10.20;99.90
6696;DHT22;3385;48.928;10.330;2023-02-28T14:37:28;10.50;99.90
6696;DHT22;3385;48.928;10.330;2023-02-28T14:39:57;10.20;99.90
6696;DHT22;3385;48.928;10.330;2023-02-28T14:42:35;10.40;99.90
6696;DHT22;3385;48.928;10.330;2023-02-28T14:45:02;10.20;99.90
6696;DHT22;3385;48.928;10.330;2023-02-28T14:47:31;9.80;99.90
6696;DHT22;3385;48.928;10.330;2023-02-28T14:49:59;9.80;99.90
6696;DHT22;3385;48.928;10.330;2023-02-28T14:52:31;9.90;99.90
6696;DHT22;3385;48.928;10.330;2023-02-28T14:54:59;10.20;99.90
6696;DHT22;3385;48.928;10.330;2023-02-28T14:59:59;10.40;99.90
6696;DHT22;3385;48.928;10.330;2023-02-28T15:02:29;10.70;99.90
6696;DHT22;3385;48.928;10.330;2023-02-28T15:05:00;11.10;99.90
6696;DHT22;3385;48.928;10.330;2023-02-28T15:07:27;10.90;99.90
6696;DHT22;3385;48.928;10.330;2023-02-28T15:13:07;11.20;99.90
6696;DHT22;3385;48.928;10.330;2023-02-28T15:16:15;10.70;99.90
6696;DHT22;3385;48.928;10.330;2023-02-28T15:21:17;10.00;99.90
6696;DHT22;3385;48.928;10.330;2023-02-28T15:23:46;8.70;99.90
6696;DHT22;3385;48.928;10.330;2023-02-28T15:26:15;7.70;99.90
6696;DHT22;3385;48.928;10.330;2023-02-28T15:28:43;6.50;99.90
6696;DHT22;3385;48.928;10.330;2023-02-28T15:31:20;5.80;99.90
6696;DHT22;3385;48.928;10.330;2023-02-28T15:34:02;5.70;99.90
6696;DHT22;3385;48.928;10.330;2023-02-28T15:36:33;5.20;99.90
6696;DHT22;3385;48.928;10.330;2023-02-28T15:39:16;5.10;99.90
6696;DHT22;3385;48.928;10.330;2023-02-28T15:41:43;5.00;99.90
6696;DHT22;3385;48.928;10.330;2023-02-28T15:44:23;4.70;99.90
6696;DHT22;3385;48.928;10.330;2023-02-28T15:47:16;4.50;99.90
6696;DHT22;3385;48.928;10.330;2023-02-28T15:52:34;4.50;99.90
6696;DHT22;3385;48.928;10.330;2023-02-28T15:55:08;4.50;99.90
6696;DHT22;3385;48.928;10.330;2023-02-28T15:57:35;4.20;99.90
6696;DHT22;3385;48.928;10.330;2023-02-28T16:00:02;0.70;99.90
6696;DHT22;3385;48.928;10.330;2023-02-28T16:02:35;3.80;99.90
6696;DHT22;3385;48.928;10.330;2023-02-28T16:07:41;3.80;99.90
6696;DHT22;3385;48.928;10.330;2023-02-28T16:10:10;3.60;99.90
6696;DHT22;3385;48.928;10.330;2023-02-28T16:12:38;3.20;99.90
6696;DHT22;3385;48.928;10.330;2023-02-28T16:15:26;3.10;99.90
6696;DHT22;3385;48.928;10.330;2023-02-28T16:17:53;3.00;99.90
6696;DHT22;3385;48.928;10.330;2023-02-28T16:20:23;2.90;99.90
6696;DHT22;3385;48.928;10.330;2023-02-28T16:22:49;3.10;99.90
6696;DHT22;3385;48.928;10.330;2023-02-28T16:25:17;2.60;99.90
6696;DHT22;3385;48.928;10.330;2023-02-28T16:27:46;2.30;99.90
6696;DHT22;3385;48.928;10.330;2023-02-28T16:30:23;2.20;99.90
6696;DHT22;3385;48.928;10.330;2023-02-28T16:32:50;2.10;99.90
6696;DHT22;3385;48.928;10.330;2023-02-28T16:35:18;2.00;99.90
6696;DHT22;3385;48.928;10.330;2023-02-28T16:37:44;2.20;99.90
6696;DHT22;3385;48.928;10.330;2023-02-28T16:40:15;2.00;99.90
6696;DHT22;3385;48.928;10.330;2023-02-28T16:42:42;1.60;99.90
6696;DHT22;3385;48.928;10.330;2023-02-28T16:45:19;1.90;99.90
6696;DHT22;3385;48.928;10.330;2023-02-28T16:47:46;1.70;99.90
6696;DHT22;3385;48.928;10.330;2023-02-28T16:50:32;1.60;99.90
6696;DHT22;3385;48.928;10.330;2023-02-28T16:52:58;1.40;99.90
6696;DHT22;3385;48.928;10.330;2023-02-28T16:55:26;1.50;99.90
6696;DHT22;3385;48.928;10.330;2023-02-28T16:57:54;1.20;99.90
6696;DHT22;3385;48.928;10.330;2023-02-28T17:00:21;0.90;99.90
6696;DHT22;3385;48.928;10.330;2023-02-28T17:02:47;1.10;99.90
6696;DHT22;3385;48.928;10.330;2023-02-28T17:05:14;0.70;99.90
6696;DHT22;3385;48.928;10.330;2023-02-28T17:07:41;1.10;99.90
6696;DHT22;3385;48.928;10.330;2023-02-28T17:10:15;0.90;99.90
6696;DHT22;3385;48.928;10.330;2023-02-28T17:12:41;0.60;99.90
6696;DHT22;3385;48.928;10.330;2023-02-28T17:15:07;0.80;99.90
6696;DHT22;3385;48.928;10.330;2023-02-28T17:17:33;0.40;99.90
6696;DHT22;3385;48.928;10.330;2023-02-28T17:19:59;0.40;99.90
6696;DHT22;3385;48.928;10.330;2023-02-28T17:22:25;0.40;99.90
6696;DHT22;3385;48.928;10.330;2023-02-28T17:24:52;0.10;99.90
6696;DHT22;3385;48.928;10.330;2023-02-28T17:27:21;0.40;99.90
6696;DHT22;3385;48.928;10.330;2023-02-28T17:29:47;0.10;99.90
6696;DHT22;3385;48.928;10.330;2023-02-28T17:32:13;0.00;99.90
6696;DHT22;3385;48.928;10.330;2023-02-28T17:34:38;0.10;99.90
6696;DHT22;3385;48.928;10.330;2023-02-28T17:37:04;-0.10;99.90
6696;DHT22;3385;48.928;10.330;2023-02-28T17:39:30;0.00;99.90
6696;DHT22;3385;48.928;10.330;2023-02-28T17:41:56;0.00;99.90
6696;DHT22;3385;48.928;10.330;2023-02-28T17:44:23;-0.30;99.90
6696;DHT22;3385;48.928;10.330;2023-02-28T17:46:49;-0.20;99.90
6696;DHT22;3385;48.928;10.330;2023-02-28T17:49:17;0.00;99.90
6696;DHT22;3385;48.928;10.330;2023-02-28T17:51:42;-0.20;99.90
6696;DHT22;3385;48.928;10.330;2023-02-28T17:54:08;-0.40;99.90
6696;DHT22;3385;48.928;10.330;2023-02-28T17:56:34;-0.40;99.90
6696;DHT22;3385;48.928;10.330;2023-02-28T17:59:01;-0.50;99.90
6696;DHT22;3385;48.928;10.330;2023-02-28T18:01:26;-0.50;99.90
6696;DHT22;3385;48.928;10.330;2023-02-28T18:03:53;-0.40;99.90
6696;DHT22;3385;48.928;10.330;2023-02-28T18:06:23;-0.40;99.90
6696;DHT22;3385;48.928;10.330;2023-02-28T18:08:50;-0.50;99.90
6696;DHT22;3385;48.928;10.330;2023-02-28T18:11:21;-0.60;99.90
6696;DHT22;3385;48.928;10.330;2023-02-28T18:13:52;-0.50;99.90
6696;DHT22;3385;48.928;10.330;2023-02-28T18:16:19;-0.70;99.90
6696;DHT22;3385;48.928;10.330;2023-02-28T18:18:46;-0.80;99.90
6696;DHT22;3385;48.928;10.330;2023-02-28T18:21:14;-0.50;99.90
6696;DHT22;3385;48.928;10.330;2023-02-28T18:23:41;-0.60;99.90
6696;DHT22;3385;48.928;10.330;2023-02-28T18:26:16;-0.50;99.90
6696;DHT22;3385;48.928;10.330;2023-02-28T18:28:43;-0.70;99.90
6696;DHT22;3385;48.928;10.330;2023-02-28T18:31:17;-0.80;99.90
6696;DHT22;3385;48.928;10.330;2023-02-28T18:33:44;-0.80;99.90
6696;DHT22;3385;48.928;10.330;2023-02-28T18:36:09;-0.20;99.90
6696;DHT22;3385;48.928;10.330;2023-02-28T18:38:36;-0.80;99.90
6696;DHT22;3385;48.928;10.330;2023-02-28T18:41:03;-0.90;99.90
6696;DHT22;3385;48.928;10.330;2023-02-28T18:43:31;-0.80;99.90
6696;DHT22;3385;48.928;10.330;2023-02-28T18:46:00;-1.00;99.90